Time;durP1;ratioP1;P1;durP2;ratioP2;P2;SDS_P1;SDS_P2;PMS_P1;PMS_P2;Temp;Humidity;BMP_temperature;BMP_pressure;BME280_temperature;BME280_humidity;BME280_pressure;Samples;Min_cycle;Max_cycle;Signal;HPM_P1;HPM_P2
2021/09/19 00:00:13;;;;;;;7.72;1.88;;;15.90;77.00;;;;;;5040571;28;20121;-76
2021/09/19 00:02:39;;;;;;;4.18;2.00;;;15.90;76.30;;;;;;5040687;28;20076;-76
2021/09/19 00:05:07;;;;;;;3.72;1.70;;;15.90;76.00;;;;;;5040396;28;20068;-76
2021/09/19 00:07:33;;;;;;;5.53;2.22;;;15.80;76.20;;;;;;5040436;28;20041;-76
2021/09/19 00:09:59;;;;;;;4.38;1.90;;;15.80;76.80;;;;;;5040652;28;20032;-76
2021/09/19 00:12:25;;;;;;;5.63;2.33;;;15.80;75.80;;;;;;5040288;28;20399;-76
2021/09/19 00:14:51;;;;;;;5.38;2.38;;;15.80;75.90;;;;;;5040555;28;20071;-76
2021/09/19 00:17:17;;;;;;;6.07;2.40;;;15.70;75.70;;;;;;5040241;28;20021;-77
2021/09/19 00:19:44;;;;;;;7.68;3.22;;;15.70;76.30;;;;;;5040243;28;20030;-76
2021/09/19 00:22:10;;;;;;;9.93;2.97;;;15.70;76.40;;;;;;5040087;28;20072;-77
2021/09/19 00:24:36;;;;;;;6.70;2.58;;;15.70;75.70;;;;;;5040178;28;20021;-76
2021/09/19 00:27:03;;;;;;;4.60;2.40;;;15.70;75.60;;;;;;5039877;28;20480;-77
2021/09/19 00:29:29;;;;;;;5.53;2.92;;;15.70;75.30;;;;;;5040395;28;20037;-77
2021/09/19 00:31:55;;;;;;;7.30;3.00;;;15.70;75.20;;;;;;5039979;28;20041;-77
2021/09/19 00:34:21;;;;;;;8.13;2.80;;;15.70;75.20;;;;;;5039719;28;20496;-76
2021/09/19 00:36:46;;;;;;;5.70;2.30;;;15.70;75.20;;;;;;5039604;28;20028;-77
2021/09/19 00:39:12;;;;;;;7.47;2.70;;;15.70;75.20;;;;;;5040274;28;20025;-76
2021/09/19 00:41:39;;;;;;;9.07;3.40;;;15.80;76.30;;;;;;5039767;28;20025;-76
2021/09/19 00:44:09;;;;;;;9.60;2.97;;;15.80;77.20;;;;;;5040098;28;20045;-76
2021/09/19 00:46:37;;;;;;;6.20;2.67;;;15.90;76.40;;;;;;5039670;28;20056;-76
2021/09/19 00:49:04;;;;;;;7.10;2.90;;;15.90;76.00;;;;;;5039865;28;20068;-77
2021/09/19 00:51:32;;;;;;;7.05;2.85;;;15.90;75.60;;;;;;5039564;28;20373;-76
2021/09/19 00:53:58;;;;;;;8.25;3.10;;;15.90;76.40;;;;;;5039780;28;20021;-76
2021/09/19 00:56:27;;;;;;;5.85;2.53;;;15.90;76.10;;;;;;5039445;28;20025;-76
2021/09/19 00:58:54;;;;;;;5.50;2.53;;;15.90;75.60;;;;;;5039544;28;20104;-76
2021/09/19 01:01:21;;;;;;;4.70;2.50;;;15.90;75.40;;;;;;5039546;28;20127;-76
2021/09/19 01:03:47;;;;;;;5.60;2.78;;;15.90;75.30;;;;;;5039339;28;20022;-77
2021/09/19 01:06:15;;;;;;;5.57;2.60;;;15.80;75.50;;;;;;5039460;28;20033;-76
2021/09/19 01:08:43;;;;;;;4.75;2.55;;;15.80;75.30;;;;;;5039178;28;20089;-76
2021/09/19 01:11:14;;;;;;;6.85;2.97;;;15.80;75.30;;;;;;5039500;28;20120;-76
2021/09/19 01:13:42;;;;;;;9.25;3.85;;;15.80;77.30;;;;;;5037917;28;20049;-76
2021/09/19 01:16:10;;;;;;;10.27;3.85;;;15.80;79.80;;;;;;5038110;28;20029;-77
2021/09/19 01:18:37;;;;;;;10.55;4.20;;;15.80;80.50;;;;;;5038991;28;20476;-77
2021/09/19 01:21:03;;;;;;;9.60;4.85;;;15.80;81.90;;;;;;5039233;28;20029;-77
2021/09/19 01:23:30;;;;;;;8.93;4.53;;;15.80;82.20;;;;;;5039380;28;20037;-77
2021/09/19 01:25:56;;;;;;;12.40;4.75;;;15.80;82.30;;;;;;5038994;28;20484;-77
2021/09/19 01:28:22;;;;;;;11.27;5.05;;;15.80;83.20;;;;;;5038921;28;20022;-77
2021/09/19 01:30:48;;;;;;;10.50;5.10;;;15.80;83.20;;;;;;5039310;28;20029;-77
2021/09/19 01:33:13;;;;;;;8.05;5.00;;;15.70;83.80;;;;;;5038808;28;20030;-77
2021/09/19 01:35:39;;;;;;;8.70;5.10;;;15.70;83.10;;;;;;5038672;28;20052;-78
2021/09/19 01:38:05;;;;;;;10.10;5.80;;;15.70;83.50;;;;;;5038779;28;20033;-78
2021/09/19 01:40:31;;;;;;;12.02;7.13;;;15.80;85.00;;;;;;5038988;28;20032;-78
2021/09/19 01:42:57;;;;;;;9.73;5.97;;;15.80;85.20;;;;;;5038736;28;20030;-78
2021/09/19 01:45:23;;;;;;;11.35;6.53;;;15.80;85.00;;;;;;5038874;28;20487;-78
2021/09/19 01:47:49;;;;;;;12.82;6.82;;;15.80;85.50;;;;;;5037939;28;20029;-77
2021/09/19 01:50:15;;;;;;;11.50;7.05;;;15.90;86.00;;;;;;5038420;28;20021;-77
2021/09/19 01:52:41;;;;;;;11.15;7.25;;;15.90;86.30;;;;;;5038664;28;20029;-78
2021/09/19 01:55:08;;;;;;;14.52;6.95;;;15.90;86.70;;;;;;5038743;28;20053;-78
2021/09/19 01:57:34;;;;;;;9.93;6.25;;;16.00;87.20;;;;;;5038278;28;20509;-77
2021/09/19 01:59:59;;;;;;;11.65;6.68;;;16.10;87.90;;;;;;5038489;28;20032;-78
2021/09/19 02:02:26;;;;;;;11.75;6.25;;;16.10;87.80;;;;;;5038286;28;20021;-77
2021/09/19 02:04:53;;;;;;;9.50;5.82;;;16.20;88.00;;;;;;5038273;28;20029;-77
2021/09/19 02:07:19;;;;;;;9.10;5.45;;;16.30;88.10;;;;;;5038043;28;20021;-78
2021/09/19 02:09:45;;;;;;;7.30;4.72;;;16.30;88.00;;;;;;5038534;28;20021;-78
2021/09/19 02:12:14;;;;;;;8.73;4.70;;;16.30;87.20;;;;;;5038080;28;20018;-78
2021/09/19 02:14:41;;;;;;;6.47;3.78;;;16.40;87.60;;;;;;5038471;28;20026;-78
2021/09/19 02:17:07;;;;;;;6.60;3.53;;;16.40;86.70;;;;;;5037981;28;20036;-78
2021/09/19 02:19:33;;;;;;;7.45;2.90;;;16.40;86.50;;;;;;5038001;28;20052;-78
2021/09/19 02:21:59;;;;;;;6.63;2.40;;;16.50;87.50;;;;;;5037839;28;20026;-79
2021/09/19 02:24:25;;;;;;;8.85;3.05;;;16.50;87.80;;;;;;5036633;28;20026;-79
2021/09/19 02:26:50;;;;;;;5.93;2.08;;;16.60;88.60;;;;;;5037753;28;20104;-79
2021/09/19 02:29:16;;;;;;;6.22;2.20;;;16.60;87.00;;;;;;5038058;28;20041;-78
2021/09/19 02:31:42;;;;;;;8.77;3.22;;;16.60;87.40;;;;;;5037869;28;20017;-79
2021/09/19 02:34:08;;;;;;;7.38;2.30;;;16.60;87.30;;;;;;5037568;28;20384;-79
2021/09/19 02:36:34;;;;;;;4.53;2.50;;;16.70;87.00;;;;;;5037693;28;20029;-79
2021/09/19 02:38:59;;;;;;;7.05;2.03;;;16.70;86.90;;;;;;5038052;28;20029;-79
2021/09/19 02:41:25;;;;;;;6.68;2.33;;;16.70;86.70;;;;;;5037727;28;20029;-79
2021/09/19 02:43:52;;;;;;;6.10;2.28;;;16.70;86.20;;;;;;5037868;28;20080;-79
2021/09/19 02:46:17;;;;;;;5.07;2.40;;;16.70;86.40;;;;;;5037915;28;20029;-80
2021/09/19 02:48:43;;;;;;;4.53;1.90;;;16.70;85.70;;;;;;5037561;28;20029;-80
2021/09/19 02:51:09;;;;;;;3.85;1.80;;;16.70;85.30;;;;;;5037419;28;20068;-79
2021/09/19 02:53:35;;;;;;;4.32;1.70;;;16.70;85.20;;;;;;5037589;28;20021;-79
2021/09/19 02:56:01;;;;;;;4.18;1.50;;;16.70;84.40;;;;;;5037507;28;20502;-79
2021/09/19 02:58:26;;;;;;;4.18;1.50;;;16.70;84.90;;;;;;5036393;28;20026;-79
2021/09/19 03:00:52;;;;;;;3.78;1.40;;;16.70;84.90;;;;;;5036086;28;20463;-80
2021/09/19 03:03:18;;;;;;;4.55;1.20;;;16.80;85.00;;;;;;5036157;28;20499;-79
2021/09/19 03:05:44;;;;;;;5.15;1.40;;;16.80;83.90;;;;;;5035750;28;20030;-79
2021/09/19 03:08:09;;;;;;;3.70;1.40;;;16.70;83.90;;;;;;5037463;28;20021;-80
2021/09/19 03:10:36;;;;;;;4.22;1.10;;;16.70;83.20;;;;;;5037423;28;20013;-79
2021/09/19 03:13:03;;;;;;;3.90;1.00;;;16.70;82.50;;;;;;5037590;28;20028;-78
2021/09/19 03:15:29;;;;;;;4.13;1.38;;;16.70;82.50;;;;;;5036114;28;20032;-78
2021/09/19 03:17:55;;;;;;;3.30;1.15;;;16.70;82.20;;;;;;5037496;28;20025;-78
2021/09/19 03:20:21;;;;;;;3.47;1.05;;;16.70;81.70;;;;;;5037036;28;20384;-78
2021/09/19 03:22:47;;;;;;;3.33;1.20;;;16.70;82.10;;;;;;5037367;28;20036;-79
2021/09/19 03:25:14;;;;;;;3.42;1.10;;;16.70;82.60;;;;;;5036897;28;20022;-78
2021/09/19 03:27:40;;;;;;;3.78;1.35;;;16.70;81.40;;;;;;5037504;28;20034;-78
2021/09/19 03:30:09;;;;;;;4.53;1.38;;;16.70;82.00;;;;;;5037076;28;20021;-79
2021/09/19 03:32:35;;;;;;;3.90;1.20;;;16.70;82.60;;;;;;5037310;28;20025;-78
2021/09/19 03:35:00;;;;;;;4.93;1.70;;;16.60;82.90;;;;;;5036727;28;20042;-79
2021/09/19 03:37:26;;;;;;;3.75;1.25;;;16.60;82.80;;;;;;5036120;28;20068;-79
2021/09/19 03:39:52;;;;;;;5.43;1.70;;;16.60;82.30;;;;;;5035813;28;20032;-80
2021/09/19 03:42:18;;;;;;;11.52;2.17;;;16.60;82.30;;;;;;5037098;28;20021;-78
2021/09/19 03:44:44;;;;;;;5.53;1.70;;;16.70;82.40;;;;;;5037088;28;20112;-78
2021/09/19 03:47:09;;;;;;;6.38;1.50;;;16.60;82.30;;;;;;5037013;28;20192;-78
2021/09/19 03:49:36;;;;;;;4.68;1.55;;;16.60;81.70;;;;;;5036790;28;20021;-78
2021/09/19 03:52:02;;;;;;;6.25;1.55;;;16.70;81.70;;;;;;5036958;28;20029;-79
2021/09/19 03:54:28;;;;;;;5.18;2.17;;;16.70;81.20;;;;;;5036839;28;20018;-78
2021/09/19 03:56:53;;;;;;;6.80;2.00;;;16.70;81.60;;;;;;5037035;28;20079;-78
2021/09/19 03:59:19;;;;;;;6.72;2.10;;;16.70;81.50;;;;;;5035493;28;20025;-79
2021/09/19 04:01:45;;;;;;;6.50;1.80;;;16.70;81.00;;;;;;5036995;28;20064;-78
2021/09/19 04:04:11;;;;;;;7.50;2.88;;;16.70;81.80;;;;;;5036642;28;20026;-80
2021/09/19 04:06:37;;;;;;;4.88;2.17;;;16.70;82.00;;;;;;5037052;28;20029;-80
2021/09/19 04:09:03;;;;;;;5.65;2.50;;;16.70;81.80;;;;;;5036600;28;20499;-79
2021/09/19 04:11:29;;;;;;;6.93;2.50;;;16.70;81.50;;;;;;5039504;28;20045;-79
2021/09/19 04:13:54;;;;;;;14.23;3.17;;;16.70;82.30;;;;;;5040301;28;20037;-79
2021/09/19 04:16:20;;;;;;;10.20;3.30;;;16.70;82.50;;;;;;5039102;28;20064;-80
2021/09/19 04:18:46;;;;;;;7.38;2.55;;;16.80;82.80;;;;;;5021682;28;20432;-79
2021/09/19 04:21:12;;;;;;;11.00;3.25;;;16.80;82.90;;;;;;5039063;28;20030;-80
2021/09/19 04:23:38;;;;;;;9.32;3.72;;;16.80;82.90;;;;;;5040109;28;20021;-78
2021/09/19 04:26:03;;;;;;;10.38;3.33;;;16.80;82.50;;;;;;5040286;28;20116;-82
2021/09/19 04:28:29;;;;;;;11.25;3.10;;;16.80;82.00;;;;;;5038791;28;20018;-79
2021/09/19 04:30:55;;;;;;;9.30;2.70;;;16.80;81.70;;;;;;5040260;28;20028;-81
2021/09/19 04:33:21;;;;;;;10.35;2.67;;;16.70;81.30;;;;;;5038649;28;20041;-79
2021/09/19 04:35:47;;;;;;;8.35;4.07;;;16.70;80.90;;;;;;5040559;28;20499;-79
2021/09/19 04:38:13;;;;;;;9.55;2.60;;;16.70;80.30;;;;;;5039859;28;20030;-80
2021/09/19 04:40:39;;;;;;;7.28;2.03;;;16.60;80.30;;;;;;5038572;28;20034;-79
2021/09/19 04:43:06;;;;;;;10.90;2.08;;;16.60;79.80;;;;;;5039670;28;20478;-79
2021/09/19 04:45:31;;;;;;;7.18;2.15;;;16.60;79.30;;;;;;5040090;28;20033;-79
2021/09/19 04:47:57;;;;;;;7.22;1.88;;;16.60;78.40;;;;;;5038675;28;20025;-78
2021/09/19 04:50:23;;;;;;;14.07;2.22;;;16.50;78.10;;;;;;5039938;28;20026;-79
2021/09/19 04:52:49;;;;;;;6.72;1.70;;;16.50;78.00;;;;;;5038290;28;20064;-77
2021/09/19 04:55:15;;;;;;;9.43;2.05;;;16.50;78.10;;;;;;5039696;28;20094;-79
2021/09/19 04:57:40;;;;;;;6.45;1.70;;;16.50;78.00;;;;;;5039598;28;20025;-81
2021/09/19 05:00:07;;;;;;;7.70;1.83;;;16.40;77.70;;;;;;5039651;28;20029;-77
2021/09/19 05:02:33;;;;;;;10.05;2.20;;;16.40;77.90;;;;;;5039408;28;20022;-79
2021/09/19 05:04:58;;;;;;;9.25;1.75;;;16.40;77.70;;;;;;5039420;28;20022;-79
2021/09/19 05:07:24;;;;;;;7.50;2.22;;;16.40;78.00;;;;;;5039311;28;20025;-79
2021/09/19 05:09:50;;;;;;;6.47;1.90;;;16.40;77.90;;;;;;5039569;28;20063;-78
2021/09/19 05:12:16;;;;;;;9.30;1.67;;;16.40;77.70;;;;;;5039166;28;20025;-79
2021/09/19 05:14:41;;;;;;;6.10;1.67;;;16.30;77.40;;;;;;5039602;28;20068;-79
2021/09/19 05:17:07;;;;;;;10.07;2.10;;;16.30;77.40;;;;;;5039282;28;20029;-78
2021/09/19 05:19:33;;;;;;;9.32;1.70;;;16.30;77.40;;;;;;5037751;28;20040;-79
2021/09/19 05:21:59;;;;;;;7.20;1.90;;;16.30;77.30;;;;;;5037945;28;20096;-79
2021/09/19 05:24:25;;;;;;;10.05;1.70;;;16.30;77.10;;;;;;5039045;28;20028;-79
2021/09/19 05:26:50;;;;;;;6.82;1.40;;;16.30;77.00;;;;;;5038808;28;20132;-78
2021/09/19 05:29:16;;;;;;;6.97;2.20;;;16.30;76.90;;;;;;5039423;28;20025;-80
2021/09/19 05:31:42;;;;;;;5.60;1.80;;;16.20;76.70;;;;;;5038997;28;20061;-78
2021/09/19 05:34:08;;;;;;;9.68;2.03;;;16.20;76.60;;;;;;5038550;28;20046;-79
2021/09/19 05:36:33;;;;;;;6.82;1.33;;;16.20;76.50;;;;;;5038908;28;20029;-79
2021/09/19 05:38:59;;;;;;;6.82;1.92;;;16.20;76.30;;;;;;5037541;28;20052;-78
2021/09/19 05:41:25;;;;;;;7.78;1.50;;;16.10;76.30;;;;;;5038726;28;20037;-80
2021/09/19 05:43:51;;;;;;;8.30;1.50;;;16.20;76.20;;;;;;5037621;28;20018;-78
2021/09/19 05:46:18;;;;;;;9.32;1.92;;;16.10;76.00;;;;;;5037185;28;20030;-78
2021/09/19 05:48:44;;;;;;;8.38;1.42;;;16.10;75.70;;;;;;5037197;28;20400;-79
2021/09/19 05:51:10;;;;;;;7.10;1.20;;;16.10;75.50;;;;;;5038447;28;20026;-79
2021/09/19 05:53:37;;;;;;;7.93;1.77;;;16.10;75.40;;;;;;5038826;28;20029;-78
2021/09/19 05:56:03;;;;;;;5.97;1.30;;;16.10;75.50;;;;;;5038480;28;20567;-79
2021/09/19 05:58:29;;;;;;;6.32;1.35;;;16.10;75.30;;;;;;5038604;28;20021;-79
2021/09/19 06:00:55;;;;;;;5.40;1.30;;;16.10;75.20;;;;;;5038335;28;20029;-79
2021/09/19 06:03:20;;;;;;;6.75;1.33;;;16.10;75.10;;;;;;5036843;28;20033;-80
2021/09/19 06:05:46;;;;;;;6.28;1.33;;;16.00;74.90;;;;;;5037028;28;20025;-79
2021/09/19 06:08:12;;;;;;;5.07;1.50;;;16.00;75.20;;;;;;5038373;28;20022;-79
2021/09/19 06:10:38;;;;;;;5.30;1.83;;;16.00;75.20;;;;;;5036734;28;20028;-78
2021/09/19 06:13:04;;;;;;;6.70;1.50;;;16.00;75.20;;;;;;5038658;28;20029;-79
2021/09/19 06:15:30;;;;;;;4.72;1.10;;;16.00;75.20;;;;;;5036751;28;20087;-79
2021/09/19 06:17:56;;;;;;;5.45;1.60;;;16.00;75.10;;;;;;5038250;28;20029;-79
2021/09/19 06:20:22;;;;;;;5.47;1.27;;;16.00;75.20;;;;;;5037747;28;20032;-80
2021/09/19 06:22:47;;;;;;;6.07;1.58;;;16.00;74.90;;;;;;5038309;28;20028;-80
2021/09/19 06:25:14;;;;;;;6.50;1.45;;;16.00;74.90;;;;;;5037631;28;20029;-80
2021/09/19 06:27:39;;;;;;;4.28;1.30;;;16.00;75.10;;;;;;5036946;28;20021;-80
2021/09/19 06:30:08;;;;;;;5.95;1.67;;;16.00;75.20;;;;;;5037837;28;20056;-80
2021/09/19 06:32:34;;;;;;;12.43;2.30;;;16.00;75.00;;;;;;5038111;28;20379;-81
2021/09/19 06:35:00;;;;;;;5.72;1.30;;;16.00;75.00;;;;;;5037283;28;20046;-80
2021/09/19 06:37:26;;;;;;;5.30;1.23;;;16.00;74.90;;;;;;5037882;28;20025;-79
2021/09/19 06:39:52;;;;;;;6.63;1.33;;;16.00;74.90;;;;;;5037599;28;20052;-76
2021/09/19 06:42:18;;;;;;;5.72;1.33;;;16.00;74.80;;;;;;5038010;28;20470;-76
2021/09/19 06:44:44;;;;;;;6.32;1.45;;;16.00;74.80;;;;;;5037633;28;20033;-78
2021/09/19 06:47:10;;;;;;;5.95;1.17;;;16.10;75.00;;;;;;5037553;28;20057;-81
2021/09/19 06:49:36;;;;;;;8.73;1.75;;;16.10;75.00;;;;;;5037310;28;20021;-82
2021/09/19 06:52:02;;;;;;;8.45;1.55;;;16.10;74.90;;;;;;5037531;28;20376;-78
2021/09/19 06:54:28;;;;;;;4.53;1.20;;;16.10;74.90;;;;;;5036368;28;20021;-82
2021/09/19 06:56:54;;;;;;;8.00;1.45;;;16.10;74.80;;;;;;5037823;28;20056;-81
2021/09/19 06:59:20;;;;;;;5.70;1.83;;;16.10;74.90;;;;;;5037359;28;20029;-82
2021/09/19 07:01:46;;;;;;;7.43;1.55;;;16.20;74.90;;;;;;5037481;28;20387;-84
2021/09/19 07:04:12;;;;;;;3.35;0.90;;;16.20;75.50;;;;;;5037005;28;20021;-83
2021/09/19 07:06:38;;;;;;;6.55;1.08;;;16.20;74.80;;;;;;5036271;28;20557;-83
2021/09/19 07:09:04;;;;;;;4.85;1.08;;;16.20;74.90;;;;;;5035577;28;20428;-84
2021/09/19 07:11:29;;;;;;;5.75;1.20;;;16.30;75.00;;;;;;5036302;28;20032;-74
2021/09/19 07:13:55;;;;;;;7.40;1.42;;;16.30;74.90;;;;;;5036037;28;20018;-82
2021/09/19 07:16:21;;;;;;;6.38;1.40;;;16.40;74.60;;;;;;5037159;28;20152;-80
2021/09/19 07:18:47;;;;;;;6.50;1.60;;;16.50;75.20;;;;;;5036712;28;20032;-81
2021/09/19 07:21:13;;;;;;;7.00;1.80;;;16.50;74.40;;;;;;5037243;28;20026;-81
2021/09/19 07:23:38;;;;;;;7.22;1.33;;;16.50;74.20;;;;;;5036957;28;20052;-76
2021/09/19 07:26:04;;;;;;;7.10;1.50;;;16.60;73.80;;;;;;5037174;28;20029;-81
2021/09/19 07:28:30;;;;;;;6.50;2.05;;;16.60;73.90;;;;;;5037008;28;20048;-81
2021/09/19 07:30:57;;;;;;;6.45;1.55;;;16.50;73.90;;;;;;5037306;28;20057;-78
2021/09/19 07:33:24;;;;;;;8.40;2.10;;;16.60;74.00;;;;;;5036806;28;20548;-80
2021/09/19 07:35:51;;;;;;;12.23;3.05;;;16.60;74.30;;;;;;5036835;28;20053;-76
2021/09/19 07:38:18;;;;;;;12.35;3.70;;;16.60;74.20;;;;;;5037015;28;20094;-81
2021/09/19 07:40:46;;;;;;;9.75;2.97;;;16.60;74.20;;;;;;5035618;28;20060;-82
2021/09/19 07:43:15;;;;;;;6.57;2.03;;;16.70;74.00;;;;;;5036858;28;20431;-83
2021/09/19 07:45:41;;;;;;;9.95;3.00;;;16.70;74.00;;;;;;5037026;28;20049;-81
2021/09/19 07:48:13;;;;;;;6.75;2.03;;;16.70;74.00;;;;;;5035023;28;20017;-80
2021/09/19 07:50:40;;;;;;;6.63;1.80;;;16.70;73.90;;;;;;5040151;28;20053;-80
2021/09/19 07:53:06;;;;;;;6.35;1.40;;;16.70;74.00;;;;;;5040618;28;20027;-75
2021/09/19 07:55:34;;;;;;;27.20;16.67;;;16.70;74.10;;;;;;5040306;28;20022;-75
2021/09/19 07:58:00;;;;;;;13.63;6.35;;;16.70;74.20;;;;;;5040443;28;20104;-75
2021/09/19 08:00:26;;;;;;;9.45;4.28;;;16.80;74.10;;;;;;5040168;28;20026;-77
2021/09/19 08:02:54;;;;;;;5.65;1.80;;;16.80;73.70;;;;;;5040270;28;20018;-75
2021/09/19 08:05:22;;;;;;;7.10;1.55;;;16.80;73.70;;;;;;5039911;28;20029;-76
2021/09/19 08:07:47;;;;;;;6.90;1.98;;;16.90;73.80;;;;;;5039882;28;20014;-75
2021/09/19 08:10:14;;;;;;;7.30;2.42;;;16.80;73.30;;;;;;5040170;28;20033;-75
2021/09/19 08:12:41;;;;;;;7.60;1.50;;;16.90;73.50;;;;;;5039829;28;20037;-76
2021/09/19 08:15:08;;;;;;;6.65;1.63;;;16.90;73.50;;;;;;5039968;28;20033;-76
2021/09/19 08:17:34;;;;;;;6.20;1.63;;;16.90;73.60;;;;;;5039804;28;20028;-76
2021/09/19 08:20:00;;;;;;;7.05;1.60;;;17.00;73.80;;;;;;5038525;28;20033;-76
2021/09/19 08:22:26;;;;;;;6.47;1.67;;;17.00;73.70;;;;;;5039834;28;20017;-76
2021/09/19 08:24:52;;;;;;;5.93;1.58;;;17.10;73.60;;;;;;5039915;28;20025;-75
2021/09/19 08:27:18;;;;;;;6.32;1.70;;;17.30;73.50;;;;;;5039821;28;20438;-77
2021/09/19 08:29:44;;;;;;;6.35;1.58;;;17.40;73.70;;;;;;5039796;28;20030;-76
2021/09/19 08:32:10;;;;;;;6.55;1.58;;;17.80;73.30;;;;;;5039695;28;20053;-75
2021/09/19 08:34:36;;;;;;;7.38;1.45;;;18.20;72.80;;;;;;5039437;28;20045;-76
2021/09/19 08:37:04;;;;;;;7.22;1.48;;;18.80;70.80;;;;;;5039737;28;20025;-76
2021/09/19 08:39:30;;;;;;;13.48;6.22;;;19.40;68.50;;;;;;5039561;28;20088;-75
2021/09/19 08:41:56;;;;;;;11.02;3.63;;;19.60;67.60;;;;;;5039498;28;20025;-75
2021/09/19 08:44:22;;;;;;;9.02;1.98;;;19.80;66.90;;;;;;5033248;28;20507;-75
2021/09/19 08:46:48;;;;;;;5.45;1.50;;;19.80;67.30;;;;;;5031793;28;20033;-75
2021/09/19 08:49:18;;;;;;;5.63;1.25;;;20.00;67.10;;;;;;5039117;28;20017;-76
2021/09/19 08:51:44;;;;;;;5.80;1.30;;;20.40;67.50;;;;;;5038316;28;20116;-75
2021/09/19 08:54:10;;;;;;;5.80;1.23;;;21.10;64.80;;;;;;5039172;28;20055;-76
2021/09/19 08:56:37;;;;;;;7.55;1.77;;;21.60;63.50;;;;;;5037903;28;20495;-76
2021/09/19 08:59:03;;;;;;;8.65;1.38;;;22.00;64.90;;;;;;5039321;28;20080;-76
2021/09/19 09:01:29;;;;;;;8.23;1.20;;;22.20;66.20;;;;;;5039295;28;20033;-76
2021/09/19 09:04:05;;;;;;;6.70;1.27;;;22.40;65.90;;;;;;5037501;28;20557;-76
2021/09/19 09:06:38;;;;;;;5.10;0.95;;;22.60;65.20;;;;;;5039107;28;20032;-78
2021/09/19 09:09:15;;;;;;;9.55;1.33;;;22.70;64.90;;;;;;5038837;28;20103;-76
2021/09/19 09:11:43;;;;;;;6.07;1.63;;;22.70;64.90;;;;;;5039244;28;20026;-75
2021/09/19 09:14:19;;;;;;;21.77;15.55;;;22.80;64.50;;;;;;5037689;28;20058;-76
2021/09/19 09:16:48;;;;;;;13.32;7.72;;;22.90;63.40;;;;;;5037317;28;20022;-76
2021/09/19 09:19:14;;;;;;;5.15;1.35;;;23.10;62.10;;;;;;5036290;28;20037;-76
2021/09/19 09:21:41;;;;;;;6.40;1.13;;;23.40;59.00;;;;;;5038857;28;20018;-75
2021/09/19 09:24:08;;;;;;;5.07;1.10;;;23.50;61.60;;;;;;5038672;28;20017;-76
2021/09/19 09:26:40;;;;;;;5.43;1.27;;;23.80;63.20;;;;;;5037503;28;20021;-77
2021/09/19 09:29:13;;;;;;;5.80;1.13;;;24.30;64.30;;;;;;5038944;28;20151;-76
2021/09/19 09:31:45;;;;;;;6.15;1.08;;;25.10;60.20;;;;;;5036770;28;20022;-76
2021/09/19 09:34:11;;;;;;;;;;;25.50;54.00;;;;;;5037539;28;20515;-78
2021/09/19 09:36:57;;;;;;;9.13;1.48;;;25.60;57.40;;;;;;5037924;28;19905;-77
2021/09/19 09:39:25;;;;;;;5.95;1.13;;;25.70;58.00;;;;;;5038600;28;20430;-77
2021/09/19 09:41:52;;;;;;;6.45;1.60;;;25.90;54.00;;;;;;5038346;28;20064;-77
2021/09/19 09:44:34;;;;;;;4.50;1.00;;;26.00;56.10;;;;;;5038616;28;20021;-76
2021/09/19 09:47:01;;;;;;;;;;;26.30;55.10;;;;;;5037847;28;20044;-77
2021/09/19 09:49:46;;;;;;;6.10;1.25;;;26.30;56.50;;;;;;5053684;28;19905;-76
2021/09/19 09:52:27;;;;;;;5.68;1.55;;;26.80;53.10;;;;;;5038505;28;20025;-77
2021/09/19 09:55:10;;;;;;;5.72;1.65;;;27.10;52.40;;;;;;5038218;28;20027;-78
2021/09/19 09:57:35;;;;;;;6.45;1.45;;;27.50;56.00;;;;;;5038233;28;20029;-77
2021/09/19 10:00:11;;;;;;;6.05;1.52;;;28.00;56.60;;;;;;5038288;28;20076;-77
2021/09/19 10:02:39;;;;;;;4.78;1.10;;;28.80;52.90;;;;;;5035030;28;20099;-77
2021/09/19 10:05:07;;;;;;;4.47;1.10;;;29.20;53.70;;;;;;5038125;28;20018;-77
2021/09/19 10:07:38;;;;;;;2.85;0.88;;;29.80;49.70;;;;;;5036787;28;20057;-75
2021/09/19 10:10:05;;;;;;;4.30;1.08;;;30.00;53.10;;;;;;5035571;28;20093;-76
2021/09/19 10:12:32;;;;;;;6.30;1.25;;;30.00;52.20;;;;;;5037724;28;20075;-78
2021/09/19 10:14:57;;;;;;;4.15;1.00;;;29.90;52.80;;;;;;5036799;28;20029;-78
2021/09/19 10:17:24;;;;;;;6.57;1.20;;;30.10;52.70;;;;;;5036216;28;20025;-77
2021/09/19 10:19:51;;;;;;;6.57;0.98;;;30.20;49.50;;;;;;5036621;28;20036;-77
2021/09/19 10:22:26;;;;;;;5.07;1.30;;;30.50;50.70;;;;;;5037637;28;20028;-78
2021/09/19 10:24:56;;;;;;;2.95;0.82;;;30.70;49.40;;;;;;5037658;28;20435;-82
2021/09/19 10:27:30;;;;;;;4.20;1.00;;;31.00;50.90;;;;;;5024976;28;20076;-83
2021/09/19 10:29:59;;;;;;;7.15;1.30;;;31.30;50.00;;;;;;5036403;28;20052;-80
2021/09/19 10:32:38;;;;;;;3.88;1.00;;;31.40;49.20;;;;;;5036404;28;20029;-82
2021/09/19 10:35:29;;;;;;;5.10;1.10;;;31.60;49.20;;;;;;5037208;28;20073;-81
2021/09/19 10:38:06;;;;;;;6.18;1.50;;;31.80;45.90;;;;;;5037015;28;20117;-82
2021/09/19 10:40:42;;;;;;;3.25;0.90;;;31.90;45.60;;;;;;5037535;28;20064;-81
2021/09/19 10:43:14;;;;;;;3.38;1.30;;;32.00;45.40;;;;;;5037537;28;20025;-81
2021/09/19 10:45:42;;;;;;;4.65;1.08;;;31.70;44.20;;;;;;5036412;28;20114;-79
2021/09/19 10:48:14;;;;;;;4.25;1.60;;;31.50;45.30;;;;;;5037247;28;20021;-78
2021/09/19 10:50:41;;;;;;;6.50;2.90;;;31.40;45.80;;;;;;5037370;28;20053;-78
2021/09/19 10:53:16;;;;;;;5.53;1.40;;;31.50;46.30;;;;;;5036259;28;20519;-78
2021/09/19 10:55:58;;;;;;;3.65;1.00;;;31.60;42.30;;;;;;5036038;28;20033;-79
2021/09/19 10:58:28;;;;;;;;;;;31.60;43.00;;;;;;5036749;28;20123;-78
2021/09/19 11:01:19;;;;;;;3.70;1.10;;;31.80;43.70;;;;;;5037236;28;20388;-80
2021/09/19 11:04:06;;;;;;;4.35;0.90;;;32.00;42.40;;;;;;5035987;28;20491;-79
2021/09/19 11:06:38;;;;;;;3.00;0.77;;;31.90;42.90;;;;;;5037071;28;20068;-79
2021/09/19 11:09:27;;;;;;;3.60;0.80;;;31.90;44.50;;;;;;5037021;28;20492;-77
2021/09/19 11:12:18;;;;;;;4.90;1.60;;;31.90;42.00;;;;;;5037148;28;20022;-75
2021/09/19 11:15:06;;;;;;;3.03;0.85;;;32.20;44.90;;;;;;5037171;28;20499;-77
2021/09/19 11:17:34;;;;;;;4.40;0.93;;;32.20;44.30;;;;;;5037052;28;20025;-77
2021/09/19 11:20:12;;;;;;;3.50;0.90;;;31.90;44.10;;;;;;5037056;28;20026;-76
2021/09/19 11:22:48;;;;;;;3.42;0.80;;;31.60;41.70;;;;;;5041254;28;20382;-76
2021/09/19 11:25:16;;;;;;;5.80;1.20;;;31.10;43.20;;;;;;5041037;28;20512;-78
2021/09/19 11:27:45;;;;;;;2.65;0.82;;;31.00;44.90;;;;;;5041181;28;20029;-81
2021/09/19 11:30:14;;;;;;;3.70;0.90;;;31.00;42.50;;;;;;5040147;28;20033;-78
2021/09/19 11:32:40;;;;;;;3.78;0.85;;;31.40;45.20;;;;;;5039861;28;20028;-80
2021/09/19 11:35:08;;;;;;;3.88;0.90;;;31.50;45.40;;;;;;5040901;28;20049;-76
2021/09/19 11:37:35;;;;;;;4.20;1.20;;;31.30;44.10;;;;;;5041078;28;20032;-78
2021/09/19 11:40:01;;;;;;;5.05;1.10;;;30.90;43.90;;;;;;5040782;28;20053;-77
2021/09/19 11:42:28;;;;;;;11.43;8.63;;;30.60;43.30;;;;;;5040833;28;21003;-80
2021/09/19 11:44:57;;;;;;;17.17;12.00;;;30.40;45.00;;;;;;5040902;28;20109;-79
2021/09/19 11:47:24;;;;;;;7.15;4.32;;;30.20;46.30;;;;;;5040739;28;20029;-79
2021/09/19 11:49:56;;;;;;;5.35;1.50;;;30.00;45.10;;;;;;5040758;28;20026;-78
2021/09/19 11:52:23;;;;;;;5.25;1.00;;;29.90;45.90;;;;;;5040194;28;20024;-80
2021/09/19 11:54:50;;;;;;;6.15;1.55;;;29.90;47.10;;;;;;5040527;28;20030;-78
2021/09/19 11:57:16;;;;;;;3.53;0.80;;;29.90;46.80;;;;;;5040650;28;20438;-79
2021/09/19 11:59:47;;;;;;;3.70;0.98;;;29.80;47.30;;;;;;5040460;28;20017;-79
2021/09/19 12:02:15;;;;;;;2.72;0.82;;;29.90;47.80;;;;;;5040631;28;20099;-80
2021/09/19 12:04:45;;;;;;;4.90;1.00;;;30.30;47.90;;;;;;5039230;28;20555;-76
2021/09/19 12:07:13;;;;;;;5.00;1.10;;;30.40;47.30;;;;;;5040736;28;20076;-77
2021/09/19 12:09:49;;;;;;;4.70;1.27;;;30.00;43.10;;;;;;5040444;28;20051;-78
2021/09/19 12:12:17;;;;;;;2.92;0.65;;;29.60;44.40;;;;;;5039009;28;20045;-77
2021/09/19 12:14:48;;;;;;;3.90;1.00;;;29.40;45.80;;;;;;5040494;28;20025;-78
2021/09/19 12:17:15;;;;;;;3.22;0.77;;;29.60;47.30;;;;;;5040393;28;20025;-75
2021/09/19 12:19:47;;;;;;;4.07;1.10;;;29.70;47.00;;;;;;5040232;28;20029;-77
2021/09/19 12:22:25;;;;;;;3.67;1.00;;;29.60;46.90;;;;;;5039008;28;20029;-76
2021/09/19 12:25:04;;;;;;;3.40;0.80;;;29.40;46.50;;;;;;5040651;28;20044;-78
2021/09/19 12:27:32;;;;;;;4.95;1.05;;;29.20;47.00;;;;;;5028539;28;20056;-81
2021/09/19 12:30:07;;;;;;;2.28;0.75;;;29.10;48.10;;;;;;5040053;28;20043;-79
2021/09/19 12:32:44;;;;;;;3.55;0.75;;;29.10;48.00;;;;;;5036828;28;20538;-77
2021/09/19 12:35:16;;;;;;;2.88;0.70;;;29.20;48.00;;;;;;5039498;28;20528;-77
2021/09/19 12:37:47;;;;;;;4.07;1.08;;;29.30;47.20;;;;;;5039936;28;20488;-77
2021/09/19 12:40:19;;;;;;;1.90;0.52;;;29.40;47.20;;;;;;5039630;28;20028;-77
2021/09/19 12:42:46;;;;;;;3.03;0.85;;;29.50;47.90;;;;;;5039567;28;20120;-79
2021/09/19 12:45:15;;;;;;;3.33;1.10;;;29.40;48.20;;;;;;5038874;28;20057;-79
2021/09/19 12:47:41;;;;;;;20.90;15.13;;;29.40;47.20;;;;;;5038587;28;20083;-82